Time;durP1;ratioP1;P1;durP2;ratioP2;P2;SDS_P1;SDS_P2;PMS_P1;PMS_P2;Temp;Humidity;BMP_temperature;BMP_pressure;BME280_temperature;BME280_humidity;BME280_pressure;Samples;Min_cycle;Max_cycle;Signal;HPM_P1;HPM_P2
2022/05/08 00:01:39;;;;;;;;;14.67;14.00;;;;;22.14;48.33;101468.29;110235;1262;19491;-48
2022/05/08 00:04:06;;;;;;;;;17.50;17.00;;;;;22.14;48.22;101474.84;110244;1264;19672;-49
2022/05/08 00:06:33;;;;;;;;;17.00;16.67;;;;;22.08;48.45;101472.59;110111;1264;18720;-50
2022/05/08 00:09:00;;;;;;;;;17.00;14.67;;;;;22.06;48.47;101467.19;110080;1265;22944;-50
2022/05/08 00:11:28;;;;;;;;;17.00;15.00;;;;;22.07;48.34;101463.74;110078;1264;19600;-49
2022/05/08 00:13:55;;;;;;;;;16.67;16.67;;;;;22.11;48.00;101466.60;110111;1265;18936;-50
2022/05/08 00:16:22;;;;;;;;;17.00;15.00;;;;;22.11;48.19;101461.98;110178;1265;18849;-50
2022/05/08 00:18:49;;;;;;;;;18.33;15.67;;;;;22.11;48.24;101462.17;110180;1264;20049;-48
2022/05/08 00:21:17;;;;;;;;;14.67;13.67;;;;;22.11;47.96;101458.76;110172;1265;22397;-51
2022/05/08 00:23:44;;;;;;;;;17.33;14.67;;;;;22.12;47.96;101463.62;110190;1265;19069;-49
2022/05/08 00:26:12;;;;;;;;;14.00;13.33;;;;;22.11;47.99;101462.82;110149;1265;19590;-49
2022/05/08 00:28:40;;;;;;;;;17.67;14.67;;;;;22.09;47.97;101460.48;110139;1265;18980;-49
2022/05/08 00:31:07;;;;;;;;;17.00;15.00;;;;;22.07;47.80;101457.77;110181;1265;18917;-49
2022/05/08 00:33:34;;;;;;;;;14.00;14.00;;;;;22.07;47.88;101458.11;110137;1265;19701;-48
2022/05/08 00:36:02;;;;;;;;;14.00;13.67;;;;;22.07;47.70;101459.34;110176;1265;19121;-47
2022/05/08 00:38:29;;;;;;;;;15.33;14.00;;;;;22.06;47.64;101457.08;109984;1267;24087;-49
2022/05/08 00:40:56;;;;;;;;;17.00;17.00;;;;;22.03;47.67;101454.90;110113;1265;20139;-50
2022/05/08 00:43:23;;;;;;;;;16.00;16.00;;;;;22.01;47.43;101455.16;110124;1265;18828;-50
2022/05/08 00:45:50;;;;;;;;;14.00;14.00;;;;;21.96;47.66;101448.40;110166;1263;19264;-50
2022/05/08 00:48:18;;;;;;;;;14.67;13.33;;;;;21.94;47.55;101447.91;110138;1265;21026;-50
2022/05/08 00:50:45;;;;;;;;;16.50;16.00;;;;;21.94;47.52;101449.59;110194;1265;20297;-48
2022/05/08 00:53:12;;;;;;;;;14.00;13.33;;;;;21.94;47.55;101445.77;110145;1265;18926;-48
2022/05/08 00:55:39;;;;;;;;;18.33;16.33;;;;;21.91;47.55;101442.66;110098;1264;19611;-52
2022/05/08 00:58:07;;;;;;;;;16.00;16.00;;;;;21.89;47.40;101445.70;110084;1265;19280;-54
2022/05/08 01:00:34;;;;;;;;;14.67;14.67;;;;;21.89;47.48;101443.17;110127;1264;22257;-50
2022/05/08 01:03:01;;;;;;;;;16.00;14.00;;;;;21.89;47.34;101447.37;110168;1265;19528;-48
2022/05/08 01:05:28;;;;;;;;;16.67;15.33;;;;;21.88;47.13;101453.29;110189;1265;18787;-47
2022/05/08 01:07:55;;;;;;;;;16.00;14.00;;;;;21.87;47.36;101453.87;110214;1264;19161;-49
2022/05/08 01:10:23;;;;;;;;;15.33;14.00;;;;;21.90;47.11;101457.06;110116;1264;23360;-46
2022/05/08 01:12:50;;;;;;;;;13.67;13.67;;;;;21.88;47.35;101453.60;110178;1265;18969;-47
2022/05/08 01:15:18;;;;;;;;;16.00;15.00;;;;;21.87;47.18;101456.49;110231;1264;19390;-48
2022/05/08 01:17:45;;;;;;;;;17.00;16.00;;;;;21.88;47.26;101452.17;110232;1264;19602;-49
2022/05/08 01:20:12;;;;;;;;;16.00;16.00;;;;;21.87;47.19;101449.95;110212;1265;22758;-49
2022/05/08 01:22:40;;;;;;;;;14.00;13.00;;;;;21.86;47.09;101451.64;110178;1265;19134;-46
2022/05/08 01:25:07;;;;;;;;;15.33;14.00;;;;;21.87;47.01;101450.12;110236;1264;19673;-47
2022/05/08 01:27:34;;;;;;;;;16.50;13.50;;;;;21.85;46.76;101449.20;110077;1265;18731;-49
2022/05/08 01:30:01;;;;;;;;;16.00;14.00;;;;;21.87;46.87;101454.66;110264;1264;18689;-47
2022/05/08 01:32:29;;;;;;;;;13.67;13.00;;;;;21.86;46.90;101453.48;110193;1265;21053;-49
2022/05/08 01:34:56;;;;;;;;;15.33;14.00;;;;;21.84;46.90;101454.59;110208;1264;18794;-49
2022/05/08 01:37:23;;;;;;;;;17.00;16.00;;;;;21.84;46.80;101451.65;110172;1265;22769;-46
2022/05/08 01:39:50;;;;;;;;;14.00;14.00;;;;;21.84;46.69;101457.02;110154;1264;19655;-49
2022/05/08 01:42:17;;;;;;;;;16.00;13.00;;;;;21.81;46.73;101451.44;110140;1264;18757;-48
2022/05/08 01:44:45;;;;;;;;;14.67;13.67;;;;;21.81;46.84;101458.18;110250;1264;19170;-49
2022/05/08 01:49:53;;;;;;;;;16.33;16.00;;;;;21.83;46.89;101457.95;109410;1270;18918;-49
2022/05/08 01:52:20;;;;;;;;;17.00;15.33;;;;;21.83;46.76;101458.89;109512;1270;22070;-47
2022/05/08 01:54:48;;;;;;;;;14.00;14.00;;;;;21.81;46.57;101459.98;109470;1270;22938;-47
2022/05/08 01:57:15;;;;;;;;;15.00;13.50;;;;;21.81;46.66;101461.87;109494;1270;18832;-46
2022/05/08 01:59:42;;;;;;;;;17.33;15.33;;;;;21.79;46.62;101460.13;109464;1269;18893;-47
2022/05/08 02:02:09;;;;;;;;;17.33;16.33;;;;;21.80;46.73;101462.17;109535;1270;20182;-48
2022/05/08 02:04:37;;;;;;;;;14.00;14.00;;;;;21.79;46.44;101462.08;109490;1270;18751;-47
2022/05/08 02:07:04;;;;;;;;;17.00;16.00;;;;;21.79;46.61;101464.28;109500;1270;18984;-48
2022/05/08 02:09:31;;;;;;;;;16.00;14.67;;;;;21.79;46.78;101465.14;109482;1270;19587;-47
2022/05/08 02:11:59;;;;;;;;;18.00;14.00;;;;;21.77;46.80;101466.09;109508;1269;18868;-49
2022/05/08 02:14:26;;;;;;;;;16.00;16.00;;;;;21.77;46.78;101470.67;109445;1270;21323;-53
2022/05/08 02:16:53;;;;;;;;;17.00;16.00;;;;;21.78;46.63;101470.53;109476;1270;19465;-48
2022/05/08 02:19:21;;;;;;;;;16.67;15.33;;;;;21.77;46.60;101468.30;109497;1269;20532;-49
2022/05/08 02:21:49;;;;;;;;;13.33;13.00;;;;;21.75;46.67;101469.29;109528;1269;19250;-48
2022/05/08 02:24:16;;;;;;;;;17.33;16.00;;;;;21.75;46.63;101468.33;109550;1269;21624;-48
2022/05/08 02:26:43;;;;;;;;;17.00;16.00;;;;;21.75;46.65;101472.66;109520;1265;18908;-49
2022/05/08 02:29:10;;;;;;;;;16.00;15.00;;;;;21.75;46.62;101473.61;110191;1265;28367;-49
2022/05/08 02:31:38;;;;;;;;;16.33;14.00;;;;;21.74;46.63;101474.98;110136;1265;19607;-47
2022/05/08 02:34:05;;;;;;;;;18.00;15.00;;;;;21.74;46.43;101474.61;110109;1265;18749;-47
2022/05/08 02:36:32;;;;;;;;;13.00;12.67;;;;;21.76;46.43;101475.19;110130;1265;19194;-49
2022/05/08 02:38:59;;;;;;;;;17.00;16.00;;;;;21.76;46.36;101473.86;110170;1265;22130;-48
2022/05/08 02:41:27;;;;;;;;;14.00;14.00;;;;;21.74;46.40;101473.89;110141;1265;18751;-47
2022/05/08 02:43:54;;;;;;;;;16.33;13.67;;;;;21.73;46.44;101477.38;110127;1265;18704;-49
2022/05/08 02:46:21;;;;;;;;;15.00;14.00;;;;;21.73;46.43;101476.45;110091;1265;21980;-48
2022/05/08 02:48:48;;;;;;;;;16.00;15.00;;;;;21.69;46.32;101477.35;110077;1264;19358;-47
2022/05/08 02:51:15;;;;;;;;;12.33;12.00;;;;;21.70;46.39;101480.77;110188;1265;19158;-49
2022/05/08 02:53:43;;;;;;;;;16.33;14.00;;;;;21.68;46.28;101481.89;110137;1265;19581;-49
2022/05/08 02:58:55;;;;;;;;;16.00;14.50;;;;;21.69;46.34;101489.73;110131;1265;18801;-48
2022/05/08 03:01:22;;;;;;;;;16.00;16.00;;;;;21.71;46.22;101490.45;110155;1265;19605;-50
2022/05/08 03:03:50;;;;;;;;;17.00;15.00;;;;;21.70;46.34;101490.31;110180;1265;18742;-49
2022/05/08 03:06:17;;;;;;;;;14.00;13.50;;;;;21.69;46.17;101491.40;110140;1265;22076;-50
2022/05/08 03:08:44;;;;;;;;;17.00;17.00;;;;;21.71;46.12;101494.32;110052;1265;23032;-47
2022/05/08 03:11:27;;;;;;;;;17.50;16.00;;;;;21.69;46.12;101491.06;110155;1265;20130;-47
2022/05/08 03:13:54;;;;;;;;;14.67;14.33;;;;;21.66;46.26;101492.80;110123;1265;19004;-49
2022/05/08 03:16:22;;;;;;;;;18.00;17.00;;;;;21.67;46.01;101496.65;110104;1265;19615;-50
2022/05/08 03:18:50;;;;;;;;;16.00;13.67;;;;;21.66;46.06;101494.84;110143;1265;20853;-48
2022/05/08 03:21:17;;;;;;;;;14.00;14.00;;;;;21.68;46.02;101498.25;110133;1265;18885;-49
2022/05/08 03:23:45;;;;;;;;;16.50;13.50;;;;;21.67;46.13;101499.45;110107;1265;22972;-49
2022/05/08 03:26:14;;;;;;;;;17.33;16.00;;;;;21.67;45.95;101501.98;110099;1265;19029;-49
2022/05/08 03:28:41;;;;;;;;;16.50;15.00;;;;;21.67;46.03;101501.94;110095;1265;22282;-49
2022/05/08 03:31:08;;;;;;;;;16.33;15.33;;;;;21.68;45.97;101501.15;110167;1265;19521;-48
2022/05/08 03:33:35;;;;;;;;;13.00;12.67;;;;;21.67;46.10;101502.31;110149;1265;18780;-50
2022/05/08 03:36:03;;;;;;;;;13.67;13.00;;;;;21.66;46.01;101506.44;110133;1265;19006;-48
2022/05/08 03:38:30;;;;;;;;;13.00;13.00;;;;;21.65;46.12;101506.41;110071;1265;23519;-47
2022/05/08 03:40:57;;;;;;;;;13.00;13.00;;;;;21.67;45.97;101503.27;110155;1264;18808;-49
2022/05/08 03:43:24;;;;;;;;;16.00;14.00;;;;;21.66;45.95;101507.73;110083;1266;18850;-48
2022/05/08 03:45:51;;;;;;;;;16.00;16.00;;;;;21.67;45.94;101507.77;110126;1265;19882;-49
2022/05/08 03:48:19;;;;;;;;;15.00;13.67;;;;;21.66;45.93;101507.50;110128;1266;18861;-47
2022/05/08 03:50:46;;;;;;;;;14.00;13.67;;;;;21.67;45.83;101514.32;110190;1264;18999;-49
2022/05/08 03:53:14;;;;;;;;;13.00;13.00;;;;;21.66;45.71;101512.11;110149;1264;19509;-49
2022/05/08 03:55:41;;;;;;;;;17.00;17.00;;;;;21.64;45.74;101516.48;110098;1265;18930;-47
2022/05/08 03:58:08;;;;;;;;;17.00;16.00;;;;;21.64;45.99;101516.84;110124;1267;18727;-48
2022/05/08 04:00:35;;;;;;;;;17.00;16.33;;;;;21.63;45.88;101514.61;110170;1265;19560;-50
2022/05/08 04:03:03;;;;;;;;;17.33;15.67;;;;;21.63;45.84;101513.34;110101;1266;20418;-50
2022/05/08 04:05:30;;;;;;;;;17.33;15.33;;;;;21.64;45.96;101512.69;109993;1266;18998;-50
2022/05/08 04:07:57;;;;;;;;;14.00;14.00;;;;;21.65;45.98;101512.52;110168;1265;19677;-49
2022/05/08 04:10:24;;;;;;;;;18.67;16.33;;;;;21.65;45.87;101512.60;110090;1265;19460;-46
2022/05/08 04:12:51;;;;;;;;;16.00;14.00;;;;;21.63;46.02;101513.44;110083;1266;19207;-45
2022/05/08 04:18:04;;;;;;;;;17.00;14.00;;;;;21.65;45.94;101518.71;110144;1265;18789;-48
2022/05/08 04:20:31;;;;;;;;;17.67;16.67;;;;;21.66;45.79;101516.60;110101;1265;19672;-49
2022/05/08 04:25:43;;;;;;;;;16.67;14.00;;;;;21.65;45.91;101520.20;110042;1266;19058;-46
2022/05/08 04:28:11;;;;;;;;;12.67;12.67;;;;;21.63;45.78;101519.27;110099;1265;18934;-47
2022/05/08 04:30:38;;;;;;;;;17.33;14.00;;;;;21.64;45.81;101522.52;109971;1265;19592;-47
2022/05/08 04:33:06;;;;;;;;;14.00;13.00;;;;;21.60;45.59;101522.50;110130;1265;18911;-54
2022/05/08 04:35:33;;;;;;;;;15.00;12.00;;;;;21.58;45.71;101518.48;110086;1265;19174;-47
2022/05/08 04:38:00;;;;;;;;;17.00;15.33;;;;;21.61;45.72;101522.23;110144;1266;21014;-49
2022/05/08 04:40:27;;;;;;;;;16.67;13.00;;;;;21.61;45.68;101524.45;110133;1265;20644;-49
2022/05/08 04:42:55;;;;;;;;;15.67;14.33;;;;;21.60;45.75;101527.08;110086;1265;18882;-48
2022/05/08 04:45:22;;;;;;;;;15.00;14.00;;;;;21.60;45.79;101523.20;110172;1265;20040;-47
2022/05/08 04:47:50;;;;;;;;;17.00;16.00;;;;;21.61;45.62;101528.92;110127;1266;18759;-49
2022/05/08 04:50:17;;;;;;;;;16.33;16.00;;;;;21.62;45.62;101531.45;110089;1265;20163;-48
2022/05/08 04:52:44;;;;;;;;;16.33;15.67;;;;;21.64;45.51;101536.81;110035;1266;19757;-46
2022/05/08 04:55:11;;;;;;;;;17.50;16.50;;;;;21.64;45.65;101539.05;110125;1265;18819;-49
2022/05/08 04:57:39;;;;;;;;;16.00;13.00;;;;;21.64;45.49;101542.67;110067;1265;18880;-49
2022/05/08 05:00:06;;;;;;;;;13.00;13.00;;;;;21.64;45.66;101542.51;110128;1265;19704;-50
2022/05/08 05:02:33;;;;;;;;;12.00;12.00;;;;;21.64;45.27;101544.85;110058;1266;21787;-47
2022/05/08 05:05:01;;;;;;;;;17.00;16.00;;;;;21.63;45.45;101545.15;110040;1265;18949;-47
2022/05/08 05:07:28;;;;;;;;;15.00;14.00;;;;;21.61;45.65;101547.38;110017;1265;21428;-47
2022/05/08 05:09:55;;;;;;;;;16.00;14.00;;;;;21.58;45.64;101548.55;110140;1265;22671;-51
2022/05/08 05:12:23;;;;;;;;;15.00;14.00;;;;;21.56;45.53;101549.09;110145;1266;19526;-51
2022/05/08 05:14:50;;;;;;;;;13.67;12.00;;;;;21.59;45.68;101552.45;110131;1265;22387;-48
2022/05/08 05:17:17;;;;;;;;;14.00;14.00;;;;;21.58;45.52;101555.25;110040;1265;19001;-51
2022/05/08 05:19:45;;;;;;;;;16.00;16.00;;;;;21.56;45.48;101557.85;110091;1265;19259;-50
2022/05/08 05:22:12;;;;;;;;;16.33;16.00;;;;;21.61;45.72;101561.19;110118;1265;19605;-49
2022/05/08 05:24:39;;;;;;;;;16.67;15.67;;;;;21.61;45.88;101558.25;110110;1265;18735;-49
2022/05/08 05:27:06;;;;;;;;;15.33;13.67;;;;;21.56;45.85;101567.90;110178;1265;18864;-50
2022/05/08 05:29:34;;;;;;;;;14.33;14.00;;;;;21.57;45.70;101573.79;110102;1265;19661;-50
2022/05/08 05:32:01;;;;;;;;;12.00;12.00;;;;;21.61;45.61;101577.55;110167;1266;19423;-49
2022/05/08 05:34:28;;;;;;;;;17.33;14.67;;;;;21.56;45.77;101578.17;110076;1265;18997;-47
2022/05/08 05:36:55;;;;;;;;;16.50;14.00;;;;;21.56;45.96;101583.87;110133;1265;19530;-47
2022/05/08 05:39:24;;;;;;;;;14.00;13.00;;;;;21.56;45.85;101582.44;110127;1266;18754;-51
2022/05/08 05:41:51;;;;;;;;;14.67;14.00;;;;;21.56;45.75;101583.48;110103;1265;19659;-49
2022/05/08 05:44:19;;;;;;;;;13.33;13.00;;;;;21.58;45.82;101581.09;110072;1265;19672;-48
2022/05/08 05:49:31;;;;;;;;;13.67;13.33;;;;;21.58;45.65;101582.36;110088;1265;18853;-49
2022/05/08 05:51:58;;;;;;;;;13.50;13.50;;;;;21.55;45.77;101581.23;110110;1265;20950;-49
2022/05/08 05:54:25;;;;;;;;;13.00;13.00;;;;;21.50;45.81;101585.64;110141;1265;21623;-53
2022/05/08 05:56:52;;;;;;;;;13.67;13.00;;;;;21.65;45.61;101583.86;110032;1265;18954;-49
2022/05/08 05:59:20;;;;;;;;;14.67;14.67;;;;;21.89;45.55;101578.71;110088;1265;19409;-49
2022/05/08 06:01:48;;;;;;;;;13.00;13.00;;;;;22.06;45.47;101585.46;110100;1265;18973;-52
2022/05/08 06:04:15;;;;;;;;;13.33;13.33;;;;;22.16;45.31;101583.84;110063;1265;20026;-51
2022/05/08 06:06:42;;;;;;;;;13.67;13.00;;;;;22.20;45.30;101588.11;110077;1265;19906;-49
2022/05/08 06:09:10;;;;;;;;;13.50;13.50;;;;;22.23;45.22;101592.69;110122;1265;18770;-49
2022/05/08 06:11:37;;;;;;;;;13.00;13.00;;;;;22.26;45.06;101597.21;110037;1265;18946;-50
2022/05/08 06:14:04;;;;;;;;;13.00;12.67;;;;;22.32;45.57;101599.40;109861;1265;21167;-47
2022/05/08 06:16:31;;;;;;;;;19.33;15.33;;;;;22.38;45.42;101602.77;109812;1265;19170;-48
2022/05/08 06:18:59;;;;;;;;;14.00;13.00;;;;;22.40;45.70;101608.19;109928;1265;22952;-55
2022/05/08 06:21:27;;;;;;;;;12.67;12.00;;;;;22.41;45.37;101610.26;110099;1265;19818;-50
2022/05/08 06:23:54;;;;;;;;;13.00;10.67;;;;;22.40;45.26;101610.56;110119;1265;18884;-50
2022/05/08 06:26:22;;;;;;;;;14.00;14.00;;;;;22.32;45.06;101610.20;110045;1265;19085;-52
2022/05/08 06:28:49;;;;;;;;;16.00;13.00;;;;;22.24;45.15;101615.77;110077;1266;19588;-55
2022/05/08 06:31:17;;;;;;;;;14.00;13.00;;;;;22.26;45.68;101614.96;110060;1265;18710;-51
2022/05/08 06:33:44;;;;;;;;;16.00;14.00;;;;;22.28;45.47;101616.77;110088;1266;19047;-51
2022/05/08 06:36:12;;;;;;;;;14.00;12.67;;;;;22.32;45.39;101612.52;110149;1265;19522;-49
2022/05/08 06:38:39;;;;;;;;;13.00;13.00;;;;;22.32;45.57;101611.94;110101;1265;22082;-51
2022/05/08 06:41:06;;;;;;;;;12.33;12.00;;;;;22.29;45.27;101609.34;110101;1265;18787;-51
2022/05/08 06:43:35;;;;;;;;;13.00;12.00;;;;;22.33;45.12;101613.47;110121;1265;19608;-51
2022/05/08 06:46:02;;;;;;;;;14.00;13.00;;;;;22.38;45.90;101612.42;110090;1265;18897;-49
2022/05/08 06:48:29;;;;;;;;;14.00;13.67;;;;;22.44;45.92;101615.75;110134;1266;18867;-51
2022/05/08 06:50:56;;;;;;;;;14.33;13.33;;;;;22.52;46.34;101617.10;110118;1265;19555;-51
2022/05/08 06:53:24;;;;;;;;;13.00;13.00;;;;;22.57;46.65;101612.27;110093;1265;18850;-48
2022/05/08 06:55:51;;;;;;;;;13.00;13.00;;;;;22.63;46.76;101613.52;110091;1265;22661;-48
2022/05/08 06:58:18;;;;;;;;;14.00;13.00;;;;;22.69;46.71;101610.52;110060;1266;19586;-50
2022/05/08 07:03:30;;;;;;;;;14.00;13.00;;;;;22.76;46.79;101611.48;110034;1264;18921;-50
2022/05/08 07:06:00;;;;;;;;;13.00;13.00;;;;;22.80;46.62;101610.05;110100;1265;19614;-48
2022/05/08 07:08:27;;;;;;;;;11.00;10.00;;;;;22.80;46.94;101611.96;110120;1265;22895;-49
2022/05/08 07:10:54;;;;;;;;;16.50;14.00;;;;;22.82;47.56;101613.40;110088;1265;22798;-49
2022/05/08 07:13:25;;;;;;;;;13.67;11.33;;;;;22.84;47.54;101610.43;110097;1266;19474;-51
2022/05/08 07:15:53;;;;;;;;;14.33;13.00;;;;;22.86;47.58;101613.85;110067;1265;18864;-51
2022/05/08 07:18:21;;;;;;;;;14.00;14.00;;;;;22.87;47.61;101618.13;110062;1266;19723;-49
2022/05/08 07:20:48;;;;;;;;;10.67;10.00;;;;;22.88;47.62;101618.38;109915;1265;19731;-49
2022/05/08 07:23:16;;;;;;;;;11.33;11.00;;;;;22.86;47.60;101619.35;109852;1266;18774;-50
2022/05/08 07:25:43;;;;;;;;;13.00;13.00;;;;;22.81;47.35;101617.39;110013;1266;22502;-49
2022/05/08 07:28:10;;;;;;;;;13.67;13.00;;;;;22.69;46.65;101614.85;110078;1265;22930;-49
2022/05/08 07:30:38;;;;;;;;;14.00;14.00;;;;;22.53;46.25;101620.39;110097;1265;22278;-52
2022/05/08 07:33:05;;;;;;;;;18.50;17.00;;;;;22.21;46.63;101626.42;110127;1265;27718;-51
2022/05/08 07:38:33;;;;;;;;;16.00;16.00;;;;;22.13;46.64;101620.61;109210;1271;19117;-49
2022/05/08 07:41:00;;;;;;;;;17.00;15.00;;;;;22.07;46.99;101619.36;108757;1271;722933;-49
2022/05/08 07:43:27;;;;;;;;;18.00;16.67;;;;;21.94;46.93;101620.59;109079;1272;19650;-50
2022/05/08 07:45:55;;;;;;;;;19.00;17.00;;;;;21.72;46.87;101621.47;109266;1271;19029;-48
2022/05/08 07:48:22;;;;;;;;;17.00;16.00;;;;;21.56;46.96;101621.34;109191;1271;20480;-49
2022/05/08 07:50:49;;;;;;;;;20.00;18.00;;;;;21.66;46.88;101623.08;109224;1271;23302;-50
2022/05/08 07:53:17;;;;;;;;;17.00;16.00;;;;;21.87;46.73;101621.52;109207;1272;22241;-49
2022/05/08 07:55:51;;;;;;;;;17.00;16.00;;;;;21.92;46.56;101615.84;109221;1270;19435;-49
2022/05/08 07:58:18;;;;;;;;;17.00;16.33;;;;;22.06;46.48;101621.63;108989;1272;19778;-51
2022/05/08 08:00:46;;;;;;;;;16.33;14.00;;;;;22.11;46.22;101625.71;108970;1272;18867;-52
2022/05/08 08:03:13;;;;;;;;;14.00;14.00;;;;;22.09;46.35;101619.55;109135;1272;19477;-49
2022/05/08 08:05:40;;;;;;;;;16.00;16.00;;;;;21.99;46.57;101618.60;109211;1271;19594;-53
2022/05/08 08:08:07;;;;;;;;;18.00;17.00;;;;;21.97;46.28;101616.27;109002;1271;18918;-54
2022/05/08 08:10:35;;;;;;;;;20.00;18.00;;;;;21.98;46.19;101618.02;109848;1266;22101;-52
2022/05/08 08:13:02;;;;;;;;;19.33;17.00;;;;;22.08;46.11;101627.30;110051;1265;19684;-50
2022/05/08 08:15:29;;;;;;;;;17.00;16.00;;;;;22.20;45.97;101623.67;110173;1264;18724;-51
2022/05/08 08:17:56;;;;;;;;;16.67;15.33;;;;;22.28;45.38;101621.11;110053;1265;19384;-50
2022/05/08 08:20:24;;;;;;;;;14.00;13.00;;;;;22.34;46.32;101623.04;110126;1265;19906;-51
2022/05/08 08:22:53;;;;;;;;;13.50;13.00;;;;;22.43;46.28;101620.81;110044;1265;18818;-50
2022/05/08 08:25:22;;;;;;;;;18.00;17.50;;;;;22.51;45.90;101618.98;110044;1266;19019;-49
2022/05/08 08:27:49;;;;;;;;;13.33;11.67;;;;;22.59;45.53;101614.83;110137;1265;19597;-51
2022/05/08 08:30:16;;;;;;;;;14.00;14.00;;;;;22.63;44.88;101617.63;110110;1265;19731;-54
2022/05/08 08:32:43;;;;;;;;;14.67;14.00;;;;;22.62;44.45;101611.73;110097;1267;18846;-54
2022/05/08 08:35:11;;;;;;;;;13.00;11.33;;;;;22.57;44.26;101619.24;110137;1267;19945;-50
2022/05/08 08:37:38;;;;;;;;;11.00;10.67;;;;;22.53;43.81;101619.47;110080;1265;23368;-49
2022/05/08 08:40:05;;;;;;;;;10.00;10.00;;;;;22.52;43.75;101624.21;109912;1265;18842;-49
2022/05/08 08:42:32;;;;;;;;;13.00;10.67;;;;;22.49;43.48;101625.40;109784;1265;19591;-49
2022/05/08 08:47:44;;;;;;;;;10.33;10.00;;;;;22.47;43.51;101627.65;110103;1265;19057;-52
2022/05/08 08:50:12;;;;;;;;;14.00;13.67;;;;;22.44;43.30;101629.08;110082;1265;19687;-46
2022/05/08 08:52:39;;;;;;;;;10.00;9.00;;;;;22.38;43.30;101629.49;110149;1265;18813;-49
2022/05/08 08:55:06;;;;;;;;;12.00;11.00;;;;;22.37;43.48;101630.66;110076;1265;18673;-52
2022/05/08 08:57:34;;;;;;;;;10.00;10.00;;;;;22.41;43.52;101634.46;110138;1265;22306;-53
2022/05/08 09:00:01;;;;;;;;;13.67;13.00;;;;;22.39;43.26;101629.80;110155;1266;18835;-51
2022/05/08 09:02:28;;;;;;;;;11.00;10.00;;;;;22.31;43.28;101626.67;110131;1265;19154;-50
2022/05/08 09:04:57;;;;;;;;;10.33;10.33;;;;;22.32;43.45;101622.32;110015;1265;20432;-57
2022/05/08 09:07:24;;;;;;;;;11.00;10.00;;;;;22.35;43.40;101614.51;110053;1265;18955;-50
2022/05/08 09:09:51;;;;;;;;;14.00;13.00;;;;;22.54;43.16;101611.95;109939;1265;18833;-51
2022/05/08 09:12:19;;;;;;;;;10.00;10.00;;;;;22.58;43.03;101613.47;110153;1265;19562;-50
2022/05/08 09:14:46;;;;;;;;;11.33;10.67;;;;;22.72;43.06;101613.29;110084;1266;18774;-50
2022/05/08 09:17:13;;;;;;;;;11.67;11.67;;;;;22.81;42.70;101614.80;110099;1265;19157;-50
2022/05/08 09:19:41;;;;;;;;;11.00;10.00;;;;;22.83;42.52;101613.27;109994;1265;20959;-49
2022/05/08 09:22:09;;;;;;;;;13.33;13.00;;;;;22.77;42.33;101612.52;110029;1265;22836;-48
2022/05/08 09:24:37;;;;;;;;;10.00;10.00;;;;;22.75;42.62;101614.71;110114;1265;19104;-53
2022/05/08 09:27:04;;;;;;;;;10.67;10.33;;;;;22.80;42.80;101613.09;110154;1266;19581;-51
2022/05/08 09:29:31;;;;;;;;;14.50;13.00;;;;;22.85;42.56;101612.52;110076;1266;18761;-49
2022/05/08 09:31:58;;;;;;;;;11.67;11.67;;;;;22.87;42.50;101613.25;110088;1265;19506;-50
2022/05/08 09:34:26;;;;;;;;;18.67;15.67;;;;;22.72;42.62;101619.64;110118;1265;19744;-51
2022/05/08 09:36:53;;;;;;;;;14.50;13.50;;;;;22.63;42.56;101615.69;110091;1265;22319;-49
2022/05/08 09:39:21;;;;;;;;;13.33;13.00;;;;;22.58;42.58;101620.02;110095;1265;19068;-49
2022/05/08 09:41:48;;;;;;;;;14.33;13.67;;;;;22.55;42.70;101622.35;110134;1265;19894;-49
2022/05/08 09:44:15;;;;;;;;;17.00;13.50;;;;;22.55;42.57;101624.98;110071;1265;18818;-51
2022/05/08 09:46:43;;;;;;;;;13.00;12.67;;;;;22.52;42.71;101626.55;110116;1265;18957;-52
2022/05/08 09:49:11;;;;;;;;;13.33;11.67;;;;;22.52;42.94;101625.12;110081;1265;19793;-51
2022/05/08 09:51:38;;;;;;;;;14.67;13.00;;;;;22.51;43.04;101623.73;110093;1265;18743;-52
2022/05/08 09:54:05;;;;;;;;;15.00;15.00;;;;;22.52;43.01;101631.27;109862;1265;19204;-49
2022/05/08 09:56:32;;;;;;;;;17.00;15.33;;;;;22.48;42.81;101623.83;110025;1265;19837;-50
2022/05/08 09:59:00;;;;;;;;;14.50;14.00;;;;;22.48;42.68;101625.20;110111;1265;18763;-50
2022/05/08 10:01:27;;;;;;;;;15.00;14.00;;;;;22.45;42.61;101624.42;110100;1266;18864;-50
2022/05/08 10:03:55;;;;;;;;;15.00;14.00;;;;;22.46;42.71;101628.26;110125;1265;19525;-51
2022/05/08 10:06:22;;;;;;;;;15.00;14.00;;;;;22.40;42.71;101626.75;110170;1265;22457;-50
2022/05/08 10:08:49;;;;;;;;;15.33;14.33;;;;;22.31;42.78;101624.80;110097;1265;18926;-50
2022/05/08 10:14:16;;;;;;;;;16.00;16.00;;;;;22.32;42.93;101623.95;109491;1269;18821;-50
2022/05/08 10:16:43;;;;;;;;;14.67;14.00;;;;;22.36;43.28;101616.12;109486;1269;19695;-50
2022/05/08 10:19:10;;;;;;;;;16.67;14.00;;;;;22.38;43.08;101618.70;109531;1268;19567;-50
2022/05/08 10:21:38;;;;;;;;;18.00;14.67;;;;;22.39;43.37;101617.76;109557;1269;22257;-53
2022/05/08 10:24:05;;;;;;;;;12.50;12.50;;;;;22.42;43.35;101613.80;109620;1268;18906;-52
2022/05/08 10:26:32;;;;;;;;;15.33;13.00;;;;;22.42;43.35;101612.58;109525;1268;19838;-49
2022/05/08 10:28:59;;;;;;;;;13.33;13.00;;;;;22.42;43.38;101604.84;109530;1269;18708;-50
2022/05/08 10:31:27;;;;;;;;;11.00;11.00;;;;;22.45;43.20;101609.64;109528;1268;19073;-50
2022/05/08 10:33:54;;;;;;;;;14.00;13.00;;;;;22.48;43.19;101604.42;109518;1269;19812;-51
2022/05/08 10:36:21;;;;;;;;;15.00;14.00;;;;;22.49;43.01;101606.64;109567;1269;23233;-50
2022/05/08 10:38:48;;;;;;;;;14.33;14.00;;;;;22.52;43.17;101604.55;109513;1269;32665;-51
2022/05/08 10:41:16;;;;;;;;;13.00;12.33;;;;;22.54;43.22;101603.80;109525;1269;21672;-51
2022/05/08 10:43:43;;;;;;;;;11.33;11.33;;;;;22.54;43.07;101602.60;109508;1268;20080;-49
2022/05/08 10:46:10;;;;;;;;;13.67;13.00;;;;;22.56;43.02;101599.87;109882;1265;19114;-49
2022/05/08 10:48:37;;;;;;;;;13.00;13.00;;;;;22.57;43.07;101602.54;110247;1264;19497;-50
2022/05/08 10:51:05;;;;;;;;;11.33;11.00;;;;;22.57;43.20;101594.77;110123;1267;19274;-49
2022/05/08 10:53:33;;;;;;;;;13.67;13.00;;;;;22.57;43.08;101587.91;110084;1265;18949;-50
2022/05/08 10:56:00;;;;;;;;;12.00;12.00;;;;;22.52;42.85;101590.05;110166;1265;22882;-54
2022/05/08 10:58:27;;;;;;;;;14.00;11.50;;;;;22.50;43.09;101588.18;110073;1265;19313;-54
2022/05/08 11:00:55;;;;;;;;;13.00;13.00;;;;;22.51;42.92;101590.27;110104;1265;22197;-54
2022/05/08 11:03:22;;;;;;;;;13.00;13.00;;;;;22.50;42.82;101590.49;110143;1265;19673;-55
2022/05/08 11:05:50;;;;;;;;;10.00;10.00;;;;;22.49;42.83;101589.14;110081;1265;22413;-55
2022/05/08 11:08:18;;;;;;;;;13.00;11.00;;;;;22.53;42.94;101587.30;110116;1265;18960;-50
2022/05/08 11:10:45;;;;;;;;;11.33;11.00;;;;;22.56;42.73;101587.52;110109;1265;19496;-51
2022/05/08 11:13:12;;;;;;;;;11.00;10.00;;;;;22.57;42.43;101584.80;110122;1265;18888;-52
2022/05/08 11:15:40;;;;;;;;;11.00;10.50;;;;;22.56;42.12;101584.05;110166;1266;19263;-51
2022/05/08 11:18:08;;;;;;;;;13.00;13.00;;;;;22.55;41.79;101583.98;110162;1265;19561;-51
2022/05/08 11:20:37;;;;;;;;;14.00;10.00;;;;;22.50;41.80;101580.45;110086;1265;19235;-52
2022/05/08 11:23:05;;;;;;;;;13.00;12.00;;;;;22.49;41.85;101580.84;110044;1265;23979;-53
2022/05/08 11:25:32;;;;;;;;;11.00;10.00;;;;;22.52;41.61;101579.31;110132;1265;22790;-50
2022/05/08 11:27:59;;;;;;;;;10.33;9.33;;;;;22.51;41.52;101579.44;110111;1265;18853;-48